createdAt,value
2022-08-21T00:01:54.890Z,100993.91
2022-08-21T00:04:22.827Z,100997.97
2022-08-21T00:06:57.595Z,100995.53
2022-08-21T00:09:24.713Z,100986.69
2022-08-21T00:11:52.030Z,100997.91
2022-08-21T00:14:19.193Z,100984.22
2022-08-21T00:16:46.430Z,100984.59
2022-08-21T00:19:14.053Z,100984.94
2022-08-21T00:21:41.263Z,100981.63
2022-08-21T00:24:13.440Z,100976.84
2022-08-21T00:26:40.732Z,100978.84
2022-08-21T00:29:07.977Z,100980.00
2022-08-21T00:31:35.148Z,100981.63
2022-08-21T00:34:03.441Z,100985.25
2022-08-21T00:36:31.267Z,100980.38
2022-08-21T00:38:58.623Z,100990.06
2022-08-21T00:41:37.102Z,100986.44
2022-08-21T00:44:13.965Z,100991.97
2022-08-21T00:46:43.179Z,100987.91
2022-08-21T00:49:14.142Z,100984.28
2022-08-21T00:52:00.322Z,100985.13
2022-08-21T00:54:33.208Z,100990.28
2022-08-21T00:57:13.942Z,100985.84
2022-08-21T00:59:48.741Z,100989.00
2022-08-21T01:02:21.493Z,100991.34
2022-08-21T01:04:49.894Z,100988.53
2022-08-21T01:07:18.353Z,100985.31
2022-08-21T01:09:49.568Z,100998.91
2022-08-21T01:12:17.941Z,100990.03
2022-08-21T01:14:46.477Z,100996.38
2022-08-21T01:17:18.207Z,100992.75
2022-08-21T01:19:45.370Z,100991.97
2022-08-21T01:22:12.746Z,100992.41
2022-08-21T01:24:40.470Z,100997.13
2022-08-21T01:27:08.116Z,100988.25
2022-08-21T01:30:00.443Z,100995.41
2022-08-21T01:32:28.078Z,100987.72
2022-08-21T01:34:55.264Z,100991.72
2022-08-21T01:37:23.565Z,100996.88
2022-08-21T01:39:50.942Z,101005.66
2022-08-21T01:42:18.990Z,100990.38
2022-08-21T01:44:46.165Z,100989.81
2022-08-21T01:47:17.708Z,100998.09
2022-08-21T01:49:46.560Z,100991.44
2022-08-21T01:52:14.022Z,101000.97
2022-08-21T01:54:43.621Z,101002.06
2022-08-21T01:57:14.173Z,101004.31
2022-08-21T01:59:41.710Z,101004.22
2022-08-21T02:02:09.721Z,101009.75
2022-08-21T02:04:36.867Z,101008.09
2022-08-21T02:07:05.046Z,101003.22
2022-08-21T02:09:35.863Z,101004.41
2022-08-21T02:12:10.685Z,100998.78
2022-08-21T02:14:39.367Z,100996.00
2022-08-21T02:17:09.501Z,100996.78
2022-08-21T02:19:40.132Z,100992.03
2022-08-21T02:22:11.894Z,100990.84
2022-08-21T02:24:54.145Z,100986.78
2022-08-21T02:27:26.262Z,100987.22
2022-08-21T02:29:58.913Z,100992.72
2022-08-21T02:32:27.244Z,100993.47
2022-08-21T02:34:54.981Z,100993.72
2022-08-21T02:37:22.243Z,100996.25
2022-08-21T02:39:49.587Z,101002.59
2022-08-21T02:42:17.838Z,100990.13
2022-08-21T02:44:44.973Z,100987.66
2022-08-21T02:47:12.111Z,100988.38
2022-08-21T02:49:39.254Z,100993.97
2022-08-21T02:52:06.933Z,100982.75
2022-08-21T02:54:34.171Z,100986.31
2022-08-21T02:57:01.335Z,100992.59
2022-08-21T02:59:28.507Z,100992.16
2022-08-21T03:01:56.517Z,100998.13
2022-08-21T03:04:23.939Z,100998.03
2022-08-21T03:06:51.100Z,100995.13
2022-08-21T03:09:18.441Z,100995.03
2022-08-21T03:11:45.574Z,100988.53
2022-08-21T03:14:12.687Z,100987.25
2022-08-21T03:16:39.835Z,100984.88
2022-08-21T03:19:06.970Z,100986.09
2022-08-21T03:21:34.628Z,100986.88
2022-08-21T03:24:04.178Z,100986.81
2022-08-21T03:26:32.115Z,100983.56
2022-08-21T03:28:59.919Z,100986.34
2022-08-21T03:31:31.829Z,100989.03
2022-08-21T03:34:00.004Z,100993.38
2022-08-21T03:36:27.202Z,100985.34
2022-08-21T03:38:54.999Z,100984.88
2022-08-21T03:41:22.396Z,100990.81
2022-08-21T03:43:49.586Z,100992.66
2022-08-21T03:46:16.832Z,100987.78
2022-08-21T03:48:44.052Z,100990.94
2022-08-21T03:51:11.260Z,100987.69
2022-08-21T03:53:38.761Z,100991.56
2022-08-21T03:56:07.572Z,100998.22
2022-08-21T03:58:35.074Z,100993.31
2022-08-21T04:01:07.116Z,100998.84
2022-08-21T04:03:38.834Z,100999.78
2022-08-21T04:06:07.342Z,100998.06
2022-08-21T04:08:35.939Z,101003.53
2022-08-21T04:11:03.719Z,101004.69
2022-08-21T04:13:31.147Z,101006.47
2022-08-21T04:15:59.652Z,101006.69
2022-08-21T04:18:26.924Z,101006.56
2022-08-21T04:20:59.443Z,101010.91
2022-08-21T04:23:27.714Z,101003.56
2022-08-21T04:25:58.649Z,101003.56
2022-08-21T04:28:30.463Z,101009.88
2022-08-21T04:30:59.141Z,101011.84
2022-08-21T04:33:27.025Z,101012.78
2022-08-21T04:35:54.398Z,101006.72
2022-08-21T04:38:22.279Z,101011.50
2022-08-21T04:40:51.318Z,101005.91
2022-08-21T04:43:19.361Z,101011.84
2022-08-21T04:45:50.813Z,101017.81
2022-08-21T04:48:25.169Z,101015.47
2022-08-21T04:51:31.082Z,101015.00
2022-08-21T04:54:13.120Z,101023.63
2022-08-21T04:56:56.355Z,101015.16
2022-08-21T04:59:42.039Z,101026.81
2022-08-21T05:02:11.783Z,101021.88
2022-08-21T05:04:52.824Z,101028.41
2022-08-21T05:07:42.518Z,101029.00
2022-08-21T05:10:12.581Z,101027.94
2022-08-21T05:12:44.560Z,101031.31
2022-08-21T05:15:13.895Z,101028.41
2022-08-21T05:17:42.824Z,101032.94
2022-08-21T05:20:15.736Z,101031.88
2022-08-21T05:22:43.656Z,101031.53
2022-08-21T05:25:12.898Z,101030.81
2022-08-21T05:27:40.270Z,101042.56
2022-08-21T05:30:12.063Z,101038.38
2022-08-21T05:32:39.500Z,101033.69
2022-08-21T05:35:10.078Z,101040.22
2022-08-21T05:37:37.253Z,101041.94
2022-08-21T05:40:21.503Z,101046.00
2022-08-21T05:42:56.709Z,101048.00
2022-08-21T05:45:43.316Z,101047.66
2022-08-21T05:48:38.260Z,101048.72
2022-08-21T05:51:12.868Z,101044.84
2022-08-21T05:53:43.209Z,101056.41
2022-08-21T05:56:12.934Z,101045.75
2022-08-21T05:58:40.643Z,101050.81
2022-08-21T06:01:10.039Z,101053.25
2022-08-21T06:03:42.619Z,101047.84
2022-08-21T06:06:10.890Z,101043.91
2022-08-21T06:08:38.718Z,101050.53
2022-08-21T06:11:08.002Z,101048.31
2022-08-21T06:13:36.569Z,101042.44
2022-08-21T06:16:13.652Z,101045.16
2022-08-21T06:18:46.646Z,101040.09
2022-08-21T06:21:14.934Z,101046.88
2022-08-21T06:23:44.761Z,101045.34
2022-08-21T06:26:15.286Z,101051.41
2022-08-21T06:28:44.179Z,101051.06
2022-08-21T06:31:21.846Z,101045.75
2022-08-21T06:33:49.560Z,101052.81
2022-08-21T06:36:18.122Z,101064.69
2022-08-21T06:38:50.928Z,101058.34
2022-08-21T06:41:24.224Z,101062.28
2022-08-21T06:43:56.254Z,101063.25
2022-08-21T06:46:27.361Z,101068.50
2022-08-21T06:48:54.729Z,101059.81
2022-08-21T06:51:24.407Z,101064.97
2022-08-21T06:53:51.809Z,101058.38
2022-08-21T06:56:20.420Z,101057.03
2022-08-21T06:58:48.358Z,101058.25
2022-08-21T07:01:15.641Z,101058.31
2022-08-21T07:03:45.007Z,101059.56
2022-08-21T07:06:12.839Z,101059.91
2022-08-21T07:08:40.604Z,101052.75
2022-08-21T07:11:19.869Z,101052.03
2022-08-21T07:13:47.498Z,101044.50
2022-08-21T07:27:13.195Z,101051.03
2022-08-21T07:29:40.452Z,101047.56
2022-08-21T07:32:07.701Z,101053.94
2022-08-21T07:34:34.670Z,101051.34
2022-08-21T07:37:06.402Z,101038.19
2022-08-21T07:39:37.728Z,101043.47
2022-08-21T07:42:08.357Z,101044.28
2022-08-21T07:44:35.681Z,101045.09
2022-08-21T07:47:02.475Z,101049.69
2022-08-21T07:49:29.295Z,101053.06
2022-08-21T07:51:56.122Z,101047.81
2022-08-21T07:54:33.279Z,101051.41
2022-08-21T07:57:00.777Z,101047.44
2022-08-21T07:59:27.530Z,101045.16
2022-08-21T08:01:54.308Z,101040.81
2022-08-21T08:04:25.789Z,101036.22
2022-08-21T08:06:53.375Z,101033.69
2022-08-21T08:09:20.829Z,101027.97
2022-08-21T08:11:47.725Z,101040.41
2022-08-21T08:14:14.776Z,101031.84
2022-08-21T08:16:41.592Z,101034.47
2022-08-21T08:19:08.439Z,101026.19
2022-08-21T08:21:36.727Z,101041.31
2022-08-21T08:24:18.344Z,101027.34
2022-08-21T08:26:47.001Z,101038.00
2022-08-21T08:29:22.417Z,101043.91
2022-08-21T08:31:49.218Z,101046.56
2022-08-21T08:34:25.021Z,101047.38
2022-08-21T08:36:52.770Z,101044.97
2022-08-21T08:39:26.490Z,101046.31
2022-08-21T08:42:33.995Z,101051.94
2022-08-21T08:45:11.795Z,101049.88
2022-08-21T08:47:47.744Z,101040.63
2022-08-21T08:50:50.354Z,101041.31
2022-08-21T08:53:26.650Z,101035.88
2022-08-21T08:55:54.067Z,101037.44
2022-08-21T08:58:33.101Z,101030.22
2022-08-21T09:01:01.138Z,101021.72
2022-08-21T09:03:29.578Z,101022.97
2022-08-21T09:06:05.466Z,101028.91
2022-08-21T09:09:03.091Z,101024.13
2022-08-21T09:12:05.511Z,101025.75
2022-08-21T09:15:07.566Z,101027.88
2022-08-21T09:18:30.375Z,101031.66
2022-08-21T09:21:27.507Z,101030.28
2022-08-21T09:24:18.823Z,101031.31
2022-08-21T09:26:58.418Z,101035.81
2022-08-21T09:29:30.779Z,101036.19
2022-08-21T09:31:57.495Z,101031.06
2022-08-21T09:34:33.354Z,101031.66
2022-08-21T09:37:00.614Z,101035.78
2022-08-21T09:39:43.533Z,101032.09
2022-08-21T09:42:29.662Z,101028.59
2022-08-21T09:45:24.202Z,101026.63
2022-08-21T09:47:51.037Z,101026.69
2022-08-21T09:50:24.357Z,101037.72
2022-08-21T09:52:59.772Z,101028.38
2022-08-21T09:56:06.628Z,101020.63
2022-08-21T09:58:38.361Z,101026.69
2022-08-21T10:01:08.256Z,101025.19
2022-08-21T10:03:35.261Z,101030.06
2022-08-21T10:06:09.652Z,101026.47
2022-08-21T10:08:40.289Z,101035.34
2022-08-21T10:11:25.060Z,101035.41
2022-08-21T10:14:13.640Z,101026.13
2022-08-21T10:16:40.246Z,101035.44
2022-08-21T10:19:51.096Z,101032.31
2022-08-21T10:22:53.229Z,101024.78
2022-08-21T10:25:50.466Z,101031.66
2022-08-21T10:28:42.521Z,101029.63
2022-08-21T10:31:33.339Z,101027.63
2022-08-21T10:34:31.630Z,101027.66
2022-08-21T10:37:58.396Z,101027.69
2022-08-21T10:41:11.716Z,101030.47
2022-08-21T10:44:06.775Z,101024.84
2022-08-21T10:46:51.235Z,101030.53
2022-08-21T10:49:41.221Z,101035.38
2022-08-21T10:53:01.973Z,101026.50
2022-08-21T10:55:48.935Z,101030.13
2022-08-21T10:58:40.646Z,101029.38
2022-08-21T11:01:21.774Z,101031.38
2022-08-21T11:04:16.579Z,101022.09
2022-08-21T11:06:53.356Z,101024.53
2022-08-21T11:09:26.716Z,101027.78
2022-08-21T11:12:10.668Z,101025.38
2022-08-21T11:15:03.704Z,101020.50
2022-08-21T11:18:28.463Z,101022.13
2022-08-21T11:21:25.089Z,101022.53
2022-08-21T11:24:14.362Z,101018.06
2022-08-21T11:26:54.436Z,101016.06
2022-08-21T11:29:29.800Z,101022.09
2022-08-21T11:32:44.418Z,101023.75
2022-08-21T11:35:35.226Z,101023.75
2022-08-21T11:38:29.050Z,101004.72
2022-08-21T11:41:30.925Z,101014.03
2022-08-21T11:44:35.507Z,101005.13
2022-08-21T11:47:27.259Z,101009.59
2022-08-21T11:50:34.885Z,101008.78
2022-08-21T11:53:29.831Z,101004.72
2022-08-21T11:56:36.578Z,101000.69
2022-08-21T11:59:12.168Z,101001.47
2022-08-21T12:01:45.883Z,100999.84
2022-08-21T12:04:42.950Z,100995.03
2022-08-21T12:07:38.565Z,101003.09
2022-08-21T12:10:12.976Z,101005.16
2022-08-21T12:12:43.298Z,101000.69
2022-08-21T12:15:22.114Z,100995.03
2022-08-21T12:18:32.238Z,100995.03
2022-08-21T12:21:21.329Z,100990.16
2022-08-21T12:24:18.774Z,100996.63
2022-08-21T12:26:57.543Z,100992.19
2022-08-21T12:29:32.684Z,100995.00
2022-08-21T12:32:10.885Z,100997.41
2022-08-21T12:35:25.008Z,100996.16
2022-08-21T12:38:18.290Z,100987.28
2022-08-21T12:41:04.439Z,100994.16
2022-08-21T12:43:46.404Z,100989.69
2022-08-21T12:46:27.210Z,100982.78
2022-08-21T12:49:04.354Z,100986.00
2022-08-21T12:51:52.059Z,100984.81
2022-08-21T12:54:29.996Z,100981.63
2022-08-21T12:57:07.759Z,100972.59
2022-08-21T12:59:40.693Z,100977.47
2022-08-21T13:02:19.781Z,100983.53
2022-08-21T13:04:50.157Z,100980.34
2022-08-21T13:07:27.787Z,100973.03
2022-08-21T13:10:04.136Z,100973.78
2022-08-21T13:12:32.676Z,100979.03
2022-08-21T13:15:08.757Z,100982.19
2022-08-21T13:17:45.643Z,100985.44
2022-08-21T13:20:28.445Z,100968.88
2022-08-21T13:22:55.527Z,100971.34
2022-08-21T13:25:30.688Z,100974.19
2022-08-21T13:28:14.358Z,100967.19
2022-08-21T13:30:47.558Z,100968.34
2022-08-21T13:33:19.787Z,100979.28
2022-08-21T13:36:06.791Z,100973.22
2022-08-21T13:38:37.847Z,100981.84
2022-08-21T13:41:16.955Z,100973.38
2022-08-21T13:43:56.967Z,100966.72
2022-08-21T13:46:32.417Z,100971.25
2022-08-21T13:49:02.863Z,100967.50
2022-08-21T13:51:32.503Z,100973.38
2022-08-21T13:53:59.866Z,100968.47
2022-08-21T13:56:41.791Z,100972.03
2022-08-21T13:59:08.989Z,100977.63
2022-08-21T14:01:58.240Z,100968.41
2022-08-21T14:04:35.767Z,100970.28
2022-08-21T14:07:14.893Z,100967.06
2022-08-21T14:09:44.643Z,100961.84
2022-08-21T14:12:23.276Z,100967.63
2022-08-21T14:14:51.727Z,100966.63
2022-08-21T14:17:42.542Z,100962.28
2022-08-21T14:20:26.358Z,100965.31
2022-08-21T14:22:53.261Z,100967.41
2022-08-21T14:25:20.055Z,100961.00
2022-08-21T14:28:09.909Z,100963.03
2022-08-21T14:30:44.076Z,100958.19
2022-08-21T14:33:17.000Z,100959.44
2022-08-21T14:35:43.887Z,100963.06
2022-08-21T14:41:30.667Z,100960.75
2022-08-21T14:44:08.248Z,100961.25
2022-08-21T14:46:55.325Z,100965.06
2022-08-21T14:49:29.836Z,100964.28
2022-08-21T14:51:59.467Z,100969.16
2022-08-21T14:54:32.875Z,100968.34
2022-08-21T14:57:10.304Z,100965.53
2022-08-21T14:59:39.761Z,100959.06
2022-08-21T15:02:10.811Z,100963.91
2022-08-21T15:04:37.959Z,100967.94
2022-08-21T15:07:05.916Z,100959.84
2022-08-21T15:09:32.984Z,100965.53
2022-08-21T15:12:05.698Z,100968.75
2022-08-21T15:14:41.156Z,100964.31
2022-08-21T15:17:13.279Z,100964.28
2022-08-21T15:19:40.787Z,100962.69
2022-08-21T15:22:15.500Z,100955.41
2022-08-21T15:24:46.208Z,100956.19
2022-08-21T15:27:18.129Z,100961.06
2022-08-21T15:29:45.418Z,100964.28
2022-08-21T15:32:23.974Z,100959.81
2022-08-21T15:34:54.801Z,100953.75
2022-08-21T15:37:24.376Z,100959.44
2022-08-21T15:39:54.149Z,100950.56
2022-08-21T15:42:24.448Z,100954.19
2022-08-21T15:44:55.070Z,100956.22
2022-08-21T15:47:35.371Z,100955.81
2022-08-21T15:50:05.770Z,100953.00
2022-08-21T15:52:32.819Z,100954.59
2022-08-21T15:55:00.302Z,100955.84
2022-08-21T15:57:29.149Z,100950.56
2022-08-21T16:00:12.994Z,100955.03
2022-08-21T16:02:47.894Z,100953.78
2022-08-21T16:05:20.115Z,100953.00
2022-08-21T16:07:50.984Z,100946.94
2022-08-21T16:10:29.837Z,100946.13
2022-08-21T16:13:07.237Z,100942.09
2022-08-21T16:15:34.892Z,100952.59
2022-08-21T16:18:02.349Z,100945.31
2022-08-21T16:20:31.261Z,100947.31
2022-08-21T16:22:59.728Z,100955.38
2022-08-21T16:25:27.842Z,100956.16
2022-08-21T16:28:02.568Z,100958.97
2022-08-21T16:30:31.841Z,100960.97
2022-08-21T16:33:04.439Z,100965.81
2022-08-21T16:35:32.350Z,100958.94
2022-08-21T16:37:59.704Z,100966.13
2022-08-21T16:40:28.555Z,100957.63
2022-08-21T16:42:56.343Z,100958.81
2022-08-21T16:45:23.497Z,100961.19
2022-08-21T16:47:51.419Z,100961.56
2022-08-21T16:50:25.565Z,100947.91
2022-08-21T16:52:53.231Z,100955.22
2022-08-21T16:55:20.247Z,100956.44
2022-08-21T16:57:47.480Z,100955.63
2022-08-21T17:00:15.846Z,100953.59
2022-08-21T17:02:51.339Z,100953.63
2022-08-21T17:05:18.378Z,100948.31
2022-08-21T17:07:47.126Z,100951.09
2022-08-21T17:10:19.236Z,100950.25
2022-08-21T17:12:58.448Z,100952.63
2022-08-21T17:15:36.637Z,100955.03
2022-08-21T17:18:10.425Z,100953.34
2022-08-21T17:20:38.539Z,100955.78
2022-08-21T17:23:05.564Z,100956.59
2022-08-21T17:25:34.630Z,100948.94
2022-08-21T17:28:04.560Z,100953.75
2022-08-21T17:30:32.031Z,100952.53
2022-08-21T17:33:01.562Z,100956.47
2022-08-21T17:35:29.213Z,100960.88
2022-08-21T17:37:56.958Z,100958.78
2022-08-21T17:42:52.663Z,100962.25
2022-08-21T17:45:21.387Z,100951.69
2022-08-21T17:47:48.512Z,100956.44
2022-08-21T17:50:22.838Z,100956.72
2022-08-21T17:52:50.410Z,100950.97
2022-08-21T17:55:20.437Z,100956.13
2022-08-21T17:57:52.325Z,100956.47
2022-08-21T18:00:22.070Z,100963.22
2022-08-21T18:03:03.852Z,100961.50
2022-08-21T18:05:31.238Z,100961.78
2022-08-21T18:07:58.799Z,100965.28
2022-08-21T18:10:26.274Z,100970.78
2022-08-21T18:12:54.347Z,100970.25
2022-08-21T18:15:22.585Z,100973.34
2022-08-21T18:17:52.553Z,100978.47
2022-08-21T18:20:23.905Z,100983.16
2022-08-21T18:22:51.668Z,100967.66
2022-08-21T18:25:18.708Z,100981.13
2022-08-21T18:27:49.072Z,100975.31
2022-08-21T18:30:24.303Z,100982.41
2022-08-21T18:32:55.677Z,100986.22
2022-08-21T18:35:23.871Z,100980.78
2022-08-21T18:37:50.893Z,100980.59
2022-08-21T18:40:18.462Z,100987.28
2022-08-21T18:42:58.360Z,100985.59
2022-08-21T18:45:26.334Z,100988.31
2022-08-21T18:47:58.747Z,100990.66
2022-08-21T18:50:29.234Z,100990.50
2022-08-21T18:52:57.143Z,100986.75
2022-08-21T18:55:25.734Z,100983.75
2022-08-21T18:57:57.691Z,100986.81
2022-08-21T19:00:44.367Z,100988.22
2022-08-21T19:03:23.569Z,100985.19
2022-08-21T19:05:54.756Z,100990.28
2022-08-21T19:08:28.754Z,100989.31
2022-08-21T19:11:02.565Z,100996.84
2022-08-21T19:13:30.905Z,100991.53
2022-08-21T19:16:03.941Z,101000.59
2022-08-21T19:18:39.154Z,100999.63
2022-08-21T19:21:07.813Z,100999.94
2022-08-21T19:23:35.560Z,100995.41
2022-08-21T19:26:07.542Z,100987.63
2022-08-21T19:28:50.602Z,100993.16
2022-08-21T19:31:29.558Z,100993.09
2022-08-21T19:34:31.201Z,100992.28
2022-08-21T19:37:00.517Z,100999.44
2022-08-21T19:39:27.619Z,100993.72
2022-08-21T19:41:59.796Z,100998.44
2022-08-21T19:44:31.092Z,101001.47
2022-08-21T19:47:00.451Z,100997.97
2022-08-21T19:49:35.443Z,101006.38
2022-08-21T19:52:13.193Z,100994.34
2022-08-21T19:54:42.533Z,101001.88
2022-08-21T19:57:12.774Z,100999.22
2022-08-21T19:59:42.753Z,100995.50
2022-08-21T20:02:18.590Z,100996.09
2022-08-21T20:04:53.626Z,100998.34
2022-08-21T20:07:26.752Z,101006.00
2022-08-21T20:09:56.567Z,101003.88
2022-08-21T20:12:25.305Z,101011.72
2022-08-21T20:14:54.795Z,101008.34
2022-08-21T20:17:22.919Z,101008.81
2022-08-21T20:19:55.144Z,101009.97
2022-08-21T20:22:24.107Z,101009.97
2022-08-21T20:24:51.982Z,101003.22
2022-08-21T20:27:27.780Z,101004.84
2022-08-21T20:29:55.995Z,101005.66
2022-08-21T20:32:23.473Z,101006.13
2022-08-21T20:34:53.768Z,101005.28
2022-08-21T20:37:36.645Z,101004.47
2022-08-21T20:40:12.287Z,101009.97
2022-08-21T20:42:48.766Z,101002.91
2022-08-21T20:45:35.504Z,101015.97
2022-08-21T20:48:32.828Z,101014.25
2022-08-21T20:51:52.124Z,101018.66
2022-08-21T20:54:40.470Z,101010.66
2022-08-21T20:57:32.050Z,101016.94
2022-08-21T21:00:16.808Z,101012.75
2022-08-21T21:02:58.817Z,101019.63
2022-08-21T21:05:59.852Z,101016.00
2022-08-21T21:08:40.286Z,101007.16
2022-08-21T21:11:24.205Z,101012.28
2022-08-21T21:13:56.810Z,101020.13
2022-08-21T21:16:40.576Z,101028.88
2022-08-21T21:19:38.043Z,101014.41
2022-08-21T21:22:20.470Z,101020.34
2022-08-21T21:25:39.814Z,101018.81
2022-08-21T21:28:21.827Z,101023.50
2022-08-21T21:30:51.950Z,101021.06
2022-08-21T21:33:25.118Z,101022.94
2022-08-21T21:36:22.280Z,101022.94
2022-08-21T21:39:10.539Z,101023.63
2022-08-21T21:42:01.948Z,101024.69
2022-08-21T21:45:10.033Z,101023.53
2022-08-21T21:48:16.653Z,101025.88
2022-08-21T21:51:12.068Z,101032.63
2022-08-21T21:54:05.017Z,101032.50
2022-08-21T21:57:06.318Z,101037.16
2022-08-21T22:00:33.393Z,101032.28
2022-08-21T22:03:33.547Z,101035.66
2022-08-21T22:06:17.554Z,101041.72
2022-08-21T22:09:24.705Z,101043.69
2022-08-21T22:12:18.734Z,101051.13
2022-08-21T22:14:47.536Z,101045.19
2022-08-21T22:17:48.884Z,101043.69
2022-08-21T22:20:34.053Z,101044.81
2022-08-21T22:23:12.731Z,101041.78
2022-08-21T22:25:52.065Z,101037.81
2022-08-21T22:28:26.972Z,101043.72
2022-08-21T22:31:23.516Z,101048.19
2022-08-21T22:34:19.241Z,101041.16
2022-08-21T22:37:03.048Z,101045.94
2022-08-21T22:39:54.853Z,101045.72
2022-08-21T22:42:27.621Z,101052.47
2022-08-21T22:45:04.716Z,101038.00
2022-08-21T22:47:47.412Z,101043.13
2022-08-21T22:50:27.014Z,101043.13
2022-08-21T22:53:07.755Z,101042.19
2022-08-21T22:55:53.452Z,101049.06
2022-08-21T22:58:53.751Z,101052.50
2022-08-21T23:01:21.171Z,101052.69
2022-08-21T23:03:57.747Z,101047.03
2022-08-21T23:07:02.046Z,101048.47
2022-08-21T23:09:53.205Z,101049.28
2022-08-21T23:12:36.165Z,101045.59
2022-08-21T23:15:18.182Z,101038.66
2022-08-21T23:18:25.532Z,101046.47
2022-08-21T23:21:54.897Z,101041.94
2022-08-21T23:24:57.103Z,101048.63
2022-08-21T23:28:19.063Z,101044.88
2022-08-21T23:31:18.610Z,101056.19
2022-08-21T23:34:20.336Z,101046.50
2022-08-21T23:37:49.191Z,101044.19
2022-08-21T23:40:51.635Z,101044.66
2022-08-21T23:43:58.024Z,101049.78
2022-08-21T23:47:26.292Z,101048.75
2022-08-21T23:50:29.671Z,101047.13
2022-08-21T23:53:09.046Z,101041.41
2022-08-21T23:56:48.913Z,101047.94
